sensor_id;sensor_type;location;lat;lon;timestamp;temperature;humidity
5940;DHT22;2995;-31.998;115.906;2023-12-20T00:00:11;27.50;88.10
5940;DHT22;2995;-31.998;115.906;2023-12-20T00:02:43;27.50;88.20
5940;DHT22;2995;-31.998;115.906;2023-12-20T00:05:15;27.70;87.90
5940;DHT22;2995;-31.998;115.906;2023-12-20T00:07:46;28.00;86.60
5940;DHT22;2995;-31.998;115.906;2023-12-20T00:10:17;28.20;86.30
5940;DHT22;2995;-31.998;115.906;2023-12-20T00:12:48;27.70;87.00
5940;DHT22;2995;-31.998;115.906;2023-12-20T00:15:22;28.00;87.30
5940;DHT22;2995;-31.998;115.906;2023-12-20T00:17:53;28.10;86.20
5940;DHT22;2995;-31.998;115.906;2023-12-20T00:20:24;27.90;86.00
5940;DHT22;2995;-31.998;115.906;2023-12-20T00:22:56;27.70;86.70
5940;DHT22;2995;-31.998;115.906;2023-12-20T00:25:27;28.20;87.10
5940;DHT22;2995;-31.998;115.906;2023-12-20T00:27:59;28.30;86.20
5940;DHT22;2995;-31.998;115.906;2023-12-20T00:30:32;28.60;85.70
5940;DHT22;2995;-31.998;115.906;2023-12-20T00:33:04;29.00;85.50
5940;DHT22;2995;-31.998;115.906;2023-12-20T00:35:35;28.90;84.50
5940;DHT22;2995;-31.998;115.906;2023-12-20T00:38:06;28.90;84.50
5940;DHT22;2995;-31.998;115.906;2023-12-20T00:40:38;29.40;85.10
5940;DHT22;2995;-31.998;115.906;2023-12-20T00:43:09;29.80;84.70
5940;DHT22;2995;-31.998;115.906;2023-12-20T00:45:41;29.80;84.80
5940;DHT22;2995;-31.998;115.906;2023-12-20T00:48:13;30.30;84.70
5940;DHT22;2995;-31.998;115.906;2023-12-20T00:50:45;30.20;83.60
5940;DHT22;2995;-31.998;115.906;2023-12-20T00:53:17;30.30;82.50
5940;DHT22;2995;-31.998;115.906;2023-12-20T00:55:48;30.50;83.00
5940;DHT22;2995;-31.998;115.906;2023-12-20T00:58:20;30.70;84.00
5940;DHT22;2995;-31.998;115.906;2023-12-20T01:00:54;30.80;82.50
5940;DHT22;2995;-31.998;115.906;2023-12-20T01:03:26;30.70;81.00
5940;DHT22;2995;-31.998;115.906;2023-12-20T01:05:57;30.50;82.10
5940;DHT22;2995;-31.998;115.906;2023-12-20T01:08:28;30.50;82.60
5940;DHT22;2995;-31.998;115.906;2023-12-20T01:11:00;30.90;82.30
5940;DHT22;2995;-31.998;115.906;2023-12-20T01:13:31;30.90;81.80
5940;DHT22;2995;-31.998;115.906;2023-12-20T01:16:05;31.10;82.10
5940;DHT22;2995;-31.998;115.906;2023-12-20T01:18:36;30.80;81.90
5940;DHT22;2995;-31.998;115.906;2023-12-20T01:21:08;30.90;81.70
5940;DHT22;2995;-31.998;115.906;2023-12-20T01:23:39;31.10;82.30
5940;DHT22;2995;-31.998;115.906;2023-12-20T01:26:11;31.00;81.90
5940;DHT22;2995;-31.998;115.906;2023-12-20T01:28:42;31.10;80.70
5940;DHT22;2995;-31.998;115.906;2023-12-20T01:31:15;31.00;81.70
5940;DHT22;2995;-31.998;115.906;2023-12-20T01:33:47;31.20;81.20
5940;DHT22;2995;-31.998;115.906;2023-12-20T01:36:18;31.20;81.60
5940;DHT22;2995;-31.998;115.906;2023-12-20T01:38:50;31.10;82.30
5940;DHT22;2995;-31.998;115.906;2023-12-20T01:41:21;31.10;82.40
5940;DHT22;2995;-31.998;115.906;2023-12-20T01:43:52;31.10;81.90
5940;DHT22;2995;-31.998;115.906;2023-12-20T01:46:25;31.00;80.30
5940;DHT22;2995;-31.998;115.906;2023-12-20T01:48:57;30.70;82.00
5940;DHT22;2995;-31.998;115.906;2023-12-20T01:51:28;31.00;82.60
5940;DHT22;2995;-31.998;115.906;2023-12-20T01:54:00;30.90;82.50
5940;DHT22;2995;-31.998;115.906;2023-12-20T01:56:32;30.90;80.70
5940;DHT22;2995;-31.998;115.906;2023-12-20T01:59:04;31.10;81.80
5940;DHT22;2995;-31.998;115.906;2023-12-20T02:01:37;31.10;81.20
5940;DHT22;2995;-31.998;115.906;2023-12-20T02:04:09;31.00;81.00
5940;DHT22;2995;-31.998;115.906;2023-12-20T02:06:41;31.30;80.90
5940;DHT22;2995;-31.998;115.906;2023-12-20T02:09:13;31.30;80.70
5940;DHT22;2995;-31.998;115.906;2023-12-20T02:11:46;31.20;81.60
5940;DHT22;2995;-31.998;115.906;2023-12-20T02:14:17;31.40;80.70
5940;DHT22;2995;-31.998;115.906;2023-12-20T02:16:50;31.70;80.70
5940;DHT22;2995;-31.998;115.906;2023-12-20T02:19:22;31.80;80.30
5940;DHT22;2995;-31.998;115.906;2023-12-20T02:22:07;31.90;79.80
5940;DHT22;2995;-31.998;115.906;2023-12-20T02:24:38;32.20;80.10
5940;DHT22;2995;-31.998;115.906;2023-12-20T02:27:09;32.00;78.60
5940;DHT22;2995;-31.998;115.906;2023-12-20T02:29:41;32.30;79.80
5940;DHT22;2995;-31.998;115.906;2023-12-20T02:32:12;32.60;79.60
5940;DHT22;2995;-31.998;115.906;2023-12-20T02:34:43;32.60;79.00
5940;DHT22;2995;-31.998;115.906;2023-12-20T02:37:17;32.60;79.00
5940;DHT22;2995;-31.998;115.906;2023-12-20T02:39:50;32.40;78.10
5940;DHT22;2995;-31.998;115.906;2023-12-20T02:42:24;32.00;79.30
5940;DHT22;2995;-31.998;115.906;2023-12-20T02:44:55;32.00;77.70
5940;DHT22;2995;-31.998;115.906;2023-12-20T02:47:27;31.70;78.60
5940;DHT22;2995;-31.998;115.906;2023-12-20T02:49:58;31.90;79.40
5940;DHT22;2995;-31.998;115.906;2023-12-20T02:52:31;32.30;79.10
5940;DHT22;2995;-31.998;115.906;2023-12-20T02:55:02;32.30;78.30
5940;DHT22;2995;-31.998;115.906;2023-12-20T02:57:34;32.10;78.30
5940;DHT22;2995;-31.998;115.906;2023-12-20T03:00:10;32.30;79.40
5940;DHT22;2995;-31.998;115.906;2023-12-20T03:02:41;32.40;78.70
5940;DHT22;2995;-31.998;115.906;2023-12-20T03:05:13;32.40;78.50
5940;DHT22;2995;-31.998;115.906;2023-12-20T03:07:46;32.70;78.70
5940;DHT22;2995;-31.998;115.906;2023-12-20T03:10:17;32.70;78.00
5940;DHT22;2995;-31.998;115.906;2023-12-20T03:12:48;32.70;77.90
5940;DHT22;2995;-31.998;115.906;2023-12-20T03:15:20;32.50;77.60
5940;DHT22;2995;-31.998;115.906;2023-12-20T03:17:51;32.80;78.10
5940;DHT22;2995;-31.998;115.906;2023-12-20T03:20:22;33.10;76.20
5940;DHT22;2995;-31.998;115.906;2023-12-20T03:22:56;33.20;76.70
5940;DHT22;2995;-31.998;115.906;2023-12-20T03:25:27;33.70;75.80
5940;DHT22;2995;-31.998;115.906;2023-12-20T03:27:58;33.80;74.80
5940;DHT22;2995;-31.998;115.906;2023-12-20T03:30:29;34.10;75.50
5940;DHT22;2995;-31.998;115.906;2023-12-20T03:33:00;33.80;73.30
5940;DHT22;2995;-31.998;115.906;2023-12-20T03:35:31;33.50;73.30
5940;DHT22;2995;-31.998;115.906;2023-12-20T03:38:03;33.50;74.10
5940;DHT22;2995;-31.998;115.906;2023-12-20T03:40:35;33.60;75.00
5940;DHT22;2995;-31.998;115.906;2023-12-20T03:43:06;33.60;73.80
5940;DHT22;2995;-31.998;115.906;2023-12-20T03:45:37;33.70;73.50
5940;DHT22;2995;-31.998;115.906;2023-12-20T03:48:08;33.60;73.20
5940;DHT22;2995;-31.998;115.906;2023-12-20T03:50:40;33.70;74.20
5940;DHT22;2995;-31.998;115.906;2023-12-20T03:53:13;33.80;73.00
5940;DHT22;2995;-31.998;115.906;2023-12-20T03:55:44;33.70;73.10
5940;DHT22;2995;-31.998;115.906;2023-12-20T03:58:15;34.10;73.20
5940;DHT22;2995;-31.998;115.906;2023-12-20T04:00:47;34.10;72.60
5940;DHT22;2995;-31.998;115.906;2023-12-20T04:03:18;34.40;71.90
5940;DHT22;2995;-31.998;115.906;2023-12-20T04:05:49;34.40;72.10
5940;DHT22;2995;-31.998;115.906;2023-12-20T04:08:23;34.60;71.70
5940;DHT22;2995;-31.998;115.906;2023-12-20T04:10:54;34.60;71.10
5940;DHT22;2995;-31.998;115.906;2023-12-20T04:13:25;34.70;71.00
5940;DHT22;2995;-31.998;115.906;2023-12-20T04:15:56;35.10;70.50
5940;DHT22;2995;-31.998;115.906;2023-12-20T04:18:27;35.10;71.10
5940;DHT22;2995;-31.998;115.906;2023-12-20T04:21:00;35.10;70.50
5940;DHT22;2995;-31.998;115.906;2023-12-20T04:23:33;35.10;70.10
5940;DHT22;2995;-31.998;115.906;2023-12-20T04:26:04;35.20;70.10
5940;DHT22;2995;-31.998;115.906;2023-12-20T04:28:35;35.30;70.30
5940;DHT22;2995;-31.998;115.906;2023-12-20T04:31:06;35.50;69.60
5940;DHT22;2995;-31.998;115.906;2023-12-20T04:33:37;35.60;68.90
5940;DHT22;2995;-31.998;115.906;2023-12-20T04:36:09;35.80;69.80
5940;DHT22;2995;-31.998;115.906;2023-12-20T04:38:43;36.00;69.50
5940;DHT22;2995;-31.998;115.906;2023-12-20T04:41:14;35.90;68.90
5940;DHT22;2995;-31.998;115.906;2023-12-20T04:43:47;35.90;69.60
5940;DHT22;2995;-31.998;115.906;2023-12-20T04:46:18;36.10;67.70
5940;DHT22;2995;-31.998;115.906;2023-12-20T04:48:49;35.80;68.10
5940;DHT22;2995;-31.998;115.906;2023-12-20T04:51:20;35.70;68.40
5940;DHT22;2995;-31.998;115.906;2023-12-20T04:53:54;35.80;68.10
5940;DHT22;2995;-31.998;115.906;2023-12-20T04:56:25;35.80;67.90
5940;DHT22;2995;-31.998;115.906;2023-12-20T04:58:56;36.00;68.50
5940;DHT22;2995;-31.998;115.906;2023-12-20T05:01:28;36.00;68.00
5940;DHT22;2995;-31.998;115.906;2023-12-20T05:03:59;35.80;66.90
5940;DHT22;2995;-31.998;115.906;2023-12-20T05:06:30;35.80;67.30
5940;DHT22;2995;-31.998;115.906;2023-12-20T05:09:03;35.70;66.70
5940;DHT22;2995;-31.998;115.906;2023-12-20T05:11:34;35.80;66.60
5940;DHT22;2995;-31.998;115.906;2023-12-20T05:14:06;35.80;66.70
5940;DHT22;2995;-31.998;115.906;2023-12-20T05:16:37;35.90;67.10
5940;DHT22;2995;-31.998;115.906;2023-12-20T05:19:08;36.00;67.00
5940;DHT22;2995;-31.998;115.906;2023-12-20T05:21:39;36.20;66.80
5940;DHT22;2995;-31.998;115.906;2023-12-20T05:24:13;36.20;66.60
5940;DHT22;2995;-31.998;115.906;2023-12-20T05:26:44;36.40;65.80
5940;DHT22;2995;-31.998;115.906;2023-12-20T05:29:15;36.40;65.40
5940;DHT22;2995;-31.998;115.906;2023-12-20T05:31:46;36.30;66.00
5940;DHT22;2995;-31.998;115.906;2023-12-20T05:34:17;36.50;66.10
5940;DHT22;2995;-31.998;115.906;2023-12-20T05:36:49;36.50;65.00
5940;DHT22;2995;-31.998;115.906;2023-12-20T05:39:22;36.50;65.30
5940;DHT22;2995;-31.998;115.906;2023-12-20T05:41:53;36.50;65.20
5940;DHT22;2995;-31.998;115.906;2023-12-20T05:44:25;36.50;64.20
5940;DHT22;2995;-31.998;115.906;2023-12-20T05:46:56;36.30;64.40
5940;DHT22;2995;-31.998;115.906;2023-12-20T05:49:27;36.30;64.70
5940;DHT22;2995;-31.998;115.906;2023-12-20T05:51:58;36.30;64.20
5940;DHT22;2995;-31.998;115.906;2023-12-20T05:54:31;36.50;64.30
5940;DHT22;2995;-31.998;115.906;2023-12-20T05:57:02;36.60;64.70
5940;DHT22;2995;-31.998;115.906;2023-12-20T05:59:34;36.90;63.80
5940;DHT22;2995;-31.998;115.906;2023-12-20T06:02:05;37.10;63.40
5940;DHT22;2995;-31.998;115.906;2023-12-20T06:04:36;37.00;63.20
5940;DHT22;2995;-31.998;115.906;2023-12-20T06:07:07;37.10;62.80
5940;DHT22;2995;-31.998;115.906;2023-12-20T06:09:41;36.90;63.30
5940;DHT22;2995;-31.998;115.906;2023-12-20T06:12:12;37.00;63.10
5940;DHT22;2995;-31.998;115.906;2023-12-20T06:14:44;37.10;63.10
5940;DHT22;2995;-31.998;115.906;2023-12-20T06:17:15;37.00;62.40
5940;DHT22;2995;-31.998;115.906;2023-12-20T06:19:46;37.10;63.40
5940;DHT22;2995;-31.998;115.906;2023-12-20T06:22:17;37.10;62.20
5940;DHT22;2995;-31.998;115.906;2023-12-20T06:24:51;37.10;62.90
5940;DHT22;2995;-31.998;115.906;2023-12-20T06:27:22;37.10;62.40
5940;DHT22;2995;-31.998;115.906;2023-12-20T06:29:53;37.20;62.40
5940;DHT22;2995;-31.998;115.906;2023-12-20T06:32:24;37.30;62.40
5940;DHT22;2995;-31.998;115.906;2023-12-20T06:34:57;37.40;62.10
5940;DHT22;2995;-31.998;115.906;2023-12-20T06:37:28;37.40;60.80
5940;DHT22;2995;-31.998;115.906;2023-12-20T06:40:01;37.50;61.10
5940;DHT22;2995;-31.998;115.906;2023-12-20T06:42:32;37.60;61.00
5940;DHT22;2995;-31.998;115.906;2023-12-20T06:45:04;37.50;60.60
5940;DHT22;2995;-31.998;115.906;2023-12-20T06:47:35;37.50;61.30
5940;DHT22;2995;-31.998;115.906;2023-12-20T06:50:07;37.60;61.20
5940;DHT22;2995;-31.998;115.906;2023-12-20T06:52:38;37.70;60.90
5940;DHT22;2995;-31.998;115.906;2023-12-20T06:55:12;37.60;60.90
5940;DHT22;2995;-31.998;115.906;2023-12-20T06:57:43;37.60;60.40
5940;DHT22;2995;-31.998;115.906;2023-12-20T07:00:14;37.40;60.60
5940;DHT22;2995;-31.998;115.906;2023-12-20T07:02:47;37.40;60.50
5940;DHT22;2995;-31.998;115.906;2023-12-20T07:05:19;37.50;60.60
5940;DHT22;2995;-31.998;115.906;2023-12-20T07:07:50;37.40;59.70
5940;DHT22;2995;-31.998;115.906;2023-12-20T07:10:23;37.20;59.70
5940;DHT22;2995;-31.998;115.906;2023-12-20T07:12:54;37.30;60.40
5940;DHT22;2995;-31.998;115.906;2023-12-20T07:15:26;37.30;60.50
5940;DHT22;2995;-31.998;115.906;2023-12-20T07:17:57;37.40;60.30
5940;DHT22;2995;-31.998;115.906;2023-12-20T07:20:29;37.50;60.20
5940;DHT22;2995;-31.998;115.906;2023-12-20T07:23:01;37.50;60.10
5940;DHT22;2995;-31.998;115.906;2023-12-20T07:25:34;37.60;60.30
5940;DHT22;2995;-31.998;115.906;2023-12-20T07:28:05;37.50;60.00
5940;DHT22;2995;-31.998;115.906;2023-12-20T07:30:36;37.50;59.40
5940;DHT22;2995;-31.998;115.906;2023-12-20T07:33:08;37.50;60.10
5940;DHT22;2995;-31.998;115.906;2023-12-20T07:35:40;37.60;59.40
5940;DHT22;2995;-31.998;115.906;2023-12-20T07:38:13;37.60;59.50
5940;DHT22;2995;-31.998;115.906;2023-12-20T07:40:46;37.50;59.40
5940;DHT22;2995;-31.998;115.906;2023-12-20T07:43:17;37.60;59.30
5940;DHT22;2995;-31.998;115.906;2023-12-20T07:45:49;37.60;59.50
5940;DHT22;2995;-31.998;115.906;2023-12-20T07:48:20;37.40;59.50
5940;DHT22;2995;-31.998;115.906;2023-12-20T07:50:55;37.50;59.40
5940;DHT22;2995;-31.998;115.906;2023-12-20T07:53:26;37.50;59.40
5940;DHT22;2995;-31.998;115.906;2023-12-20T07:55:59;37.60;59.30
5940;DHT22;2995;-31.998;115.906;2023-12-20T07:58:30;37.50;59.20
5940;DHT22;2995;-31.998;115.906;2023-12-20T08:01:02;37.50;58.90
5940;DHT22;2995;-31.998;115.906;2023-12-20T08:03:33;37.50;58.90
5940;DHT22;2995;-31.998;115.906;2023-12-20T08:06:05;37.60;59.20
5940;DHT22;2995;-31.998;115.906;2023-12-20T08:08:36;37.60;58.50
5940;DHT22;2995;-31.998;115.906;2023-12-20T08:11:09;37.40;59.20
5940;DHT22;2995;-31.998;115.906;2023-12-20T08:13:40;37.20;58.70
5940;DHT22;2995;-31.998;115.906;2023-12-20T08:16:11;37.10;58.70
5940;DHT22;2995;-31.998;115.906;2023-12-20T08:18:45;37.10;58.70
5940;DHT22;2995;-31.998;115.906;2023-12-20T08:21:16;37.10;58.30
5940;DHT22;2995;-31.998;115.906;2023-12-20T08:23:50;37.10;58.70
5940;DHT22;2995;-31.998;115.906;2023-12-20T08:26:23;37.10;58.30
5940;DHT22;2995;-31.998;115.906;2023-12-20T08:28:54;37.10;58.40
5940;DHT22;2995;-31.998;115.906;2023-12-20T08:31:25;37.20;58.10
5940;DHT22;2995;-31.998;115.906;2023-12-20T08:33:57;37.10;58.30
5940;DHT22;2995;-31.998;115.906;2023-12-20T08:36:28;37.10;58.10
5940;DHT22;2995;-31.998;115.906;2023-12-20T08:38:59;37.10;58.20
5940;DHT22;2995;-31.998;115.906;2023-12-20T08:41:34;37.10;58.10
5940;DHT22;2995;-31.998;115.906;2023-12-20T08:44:06;37.00;57.50
5940;DHT22;2995;-31.998;115.906;2023-12-20T08:46:37;36.90;57.80
5940;DHT22;2995;-31.998;115.906;2023-12-20T08:49:08;36.90;57.90
5940;DHT22;2995;-31.998;115.906;2023-12-20T08:51:39;36.90;57.70
5940;DHT22;2995;-31.998;115.906;2023-12-20T08:54:10;36.80;57.90
5940;DHT22;2995;-31.998;115.906;2023-12-20T08:56:44;36.70;57.80
5940;DHT22;2995;-31.998;115.906;2023-12-20T08:59:15;36.80;58.20
5940;DHT22;2995;-31.998;115.906;2023-12-20T09:01:49;36.80;58.00
5940;DHT22;2995;-31.998;115.906;2023-12-20T09:04:22;36.80;58.20
5940;DHT22;2995;-31.998;115.906;2023-12-20T09:06:53;36.90;58.00
5940;DHT22;2995;-31.998;115.906;2023-12-20T09:09:25;36.80;58.10
5940;DHT22;2995;-31.998;115.906;2023-12-20T09:11:58;36.70;57.80
5940;DHT22;2995;-31.998;115.906;2023-12-20T09:14:29;36.60;57.40
5940;DHT22;2995;-31.998;115.906;2023-12-20T09:17:00;36.50;57.60
5940;DHT22;2995;-31.998;115.906;2023-12-20T09:19:31;36.40;57.50
5940;DHT22;2995;-31.998;115.906;2023-12-20T09:22:03;36.30;57.70
5940;DHT22;2995;-31.998;115.906;2023-12-20T09:24:34;36.30;57.40
5940;DHT22;2995;-31.998;115.906;2023-12-20T09:27:08;36.30;57.60
5940;DHT22;2995;-31.998;115.906;2023-12-20T09:29:39;36.30;57.80
5940;DHT22;2995;-31.998;115.906;2023-12-20T09:32:11;36.30;58.00
5940;DHT22;2995;-31.998;115.906;2023-12-20T09:34:42;36.40;58.00
5940;DHT22;2995;-31.998;115.906;2023-12-20T09:37:13;36.30;58.30
5940;DHT22;2995;-31.998;115.906;2023-12-20T09:39:44;36.30;58.00
5940;DHT22;2995;-31.998;115.906;2023-12-20T09:42:24;36.30;57.50
5940;DHT22;2995;-31.998;115.906;2023-12-20T09:45:00;36.10;57.50
5940;DHT22;2995;-31.998;115.906;2023-12-20T09:47:33;36.10;57.80
5940;DHT22;2995;-31.998;115.906;2023-12-20T09:50:05;36.00;57.90
5940;DHT22;2995;-31.998;115.906;2023-12-20T09:52:37;36.00;58.00
5940;DHT22;2995;-31.998;115.906;2023-12-20T09:55:10;35.90;57.70
5940;DHT22;2995;-31.998;115.906;2023-12-20T09:57:43;35.80;57.70
5940;DHT22;2995;-31.998;115.906;2023-12-20T10:00:15;35.70;57.90
5940;DHT22;2995;-31.998;115.906;2023-12-20T10:02:54;35.60;57.90
5940;DHT22;2995;-31.998;115.906;2023-12-20T10:05:28;35.70;57.80
5940;DHT22;2995;-31.998;115.906;2023-12-20T10:08:00;35.70;57.90
5940;DHT22;2995;-31.998;115.906;2023-12-20T10:10:31;35.60;58.00
5940;DHT22;2995;-31.998;115.906;2023-12-20T10:13:05;35.60;57.80
5940;DHT22;2995;-31.998;115.906;2023-12-20T10:15:37;35.50;57.80
5940;DHT22;2995;-31.998;115.906;2023-12-20T10:18:09;35.40;57.90
5940;DHT22;2995;-31.998;115.906;2023-12-20T10:20:41;35.30;57.90
5940;DHT22;2995;-31.998;115.906;2023-12-20T10:23:13;35.30;57.90
5940;DHT22;2995;-31.998;115.906;2023-12-20T10:25:57;35.20;58.00
5940;DHT22;2995;-31.998;115.906;2023-12-20T10:28:34;35.20;58.00
5940;DHT22;2995;-31.998;115.906;2023-12-20T10:31:05;35.10;58.00
5940;DHT22;2995;-31.998;115.906;2023-12-20T10:33:36;35.00;58.20
5940;DHT22;2995;-31.998;115.906;2023-12-20T10:36:11;35.00;58.00
5940;DHT22;2995;-31.998;115.906;2023-12-20T10:38:44;35.00;58.20
5940;DHT22;2995;-31.998;115.906;2023-12-20T10:41:15;34.90;58.20
5940;DHT22;2995;-31.998;115.906;2023-12-20T10:43:52;34.80;57.90
5940;DHT22;2995;-31.998;115.906;2023-12-20T10:46:25;34.90;58.10
5940;DHT22;2995;-31.998;115.906;2023-12-20T10:48:58;34.80;58.10
5940;DHT22;2995;-31.998;115.906;2023-12-20T10:51:29;34.80;58.10
5940;DHT22;2995;-31.998;115.906;2023-12-20T10:54:00;34.90;58.10
5940;DHT22;2995;-31.998;115.906;2023-12-20T10:56:33;34.80;58.20
5940;DHT22;2995;-31.998;115.906;2023-12-20T10:59:08;34.60;58.20
5940;DHT22;2995;-31.998;115.906;2023-12-20T11:01:41;34.50;58.50
5940;DHT22;2995;-31.998;115.906;2023-12-20T11:04:18;34.50;58.70
5940;DHT22;2995;-31.998;115.906;2023-12-20T11:06:54;34.50;58.60
5940;DHT22;2995;-31.998;115.906;2023-12-20T11:09:31;34.30;58.30
5940;DHT22;2995;-31.998;115.906;2023-12-20T11:12:12;34.30;58.00
5940;DHT22;2995;-31.998;115.906;2023-12-20T11:14:48;34.20;58.20
5940;DHT22;2995;-31.998;115.906;2023-12-20T11:17:20;34.20;58.10
5940;DHT22;2995;-31.998;115.906;2023-12-20T11:20:09;34.00;58.30
5940;DHT22;2995;-31.998;115.906;2023-12-20T11:22:54;34.00;58.10
5940;DHT22;2995;-31.998;115.906;2023-12-20T11:25:25;33.80;58.20
5940;DHT22;2995;-31.998;115.906;2023-12-20T11:28:10;33.80;58.40
5940;DHT22;2995;-31.998;115.906;2023-12-20T11:30:52;33.80;58.30
5940;DHT22;2995;-31.998;115.906;2023-12-20T11:33:24;33.70;58.70
5940;DHT22;2995;-31.998;115.906;2023-12-20T11:35:57;33.60;58.80
5940;DHT22;2995;-31.998;115.906;2023-12-20T11:38:37;33.60;58.60
5940;DHT22;2995;-31.998;115.906;2023-12-20T11:41:08;33.50;58.50
5940;DHT22;2995;-31.998;115.906;2023-12-20T11:43:41;33.40;58.50
5940;DHT22;2995;-31.998;115.906;2023-12-20T11:46:15;33.30;58.60
5940;DHT22;2995;-31.998;115.906;2023-12-20T11:48:47;33.20;58.70
5940;DHT22;2995;-31.998;115.906;2023-12-20T11:51:18;33.30;58.80
5940;DHT22;2995;-31.998;115.906;2023-12-20T11:53:53;33.20;58.90
5940;DHT22;2995;-31.998;115.906;2023-12-20T11:56:24;33.20;58.60
5940;DHT22;2995;-31.998;115.906;2023-12-20T11:58:56;33.20;58.40
5940;DHT22;2995;-31.998;115.906;2023-12-20T12:01:29;33.10;58.40
5940;DHT22;2995;-31.998;115.906;2023-12-20T12:04:06;33.00;58.70
5940;DHT22;2995;-31.998;115.906;2023-12-20T12:06:38;33.00;58.50
5940;DHT22;2995;-31.998;115.906;2023-12-20T12:09:09;32.90;58.10
5940;DHT22;2995;-31.998;115.906;2023-12-20T12:11:40;32.80;58.40
5940;DHT22;2995;-31.998;115.906;2023-12-20T12:14:12;32.80;58.40
5940;DHT22;2995;-31.998;115.906;2023-12-20T12:16:45;32.80;58.50
5940;DHT22;2995;-31.998;115.906;2023-12-20T12:19:23;32.80;58.30
5940;DHT22;2995;-31.998;115.906;2023-12-20T12:22:06;32.80;58.30
5940;DHT22;2995;-31.998;115.906;2023-12-20T12:24:40;32.80;58.30
5940;DHT22;2995;-31.998;115.906;2023-12-20T12:27:12;32.60;58.40
5940;DHT22;2995;-31.998;115.906;2023-12-20T12:30:01;32.50;58.20
5940;DHT22;2995;-31.998;115.906;2023-12-20T12:32:34;32.60;58.30
5940;DHT22;2995;-31.998;115.906;2023-12-20T12:35:06;32.60;58.10
5940;DHT22;2995;-31.998;115.906;2023-12-20T12:37:39;32.60;58.30
5940;DHT22;2995;-31.998;115.906;2023-12-20T12:40:12;32.40;58.40
5940;DHT22;2995;-31.998;115.906;2023-12-20T12:42:43;32.30;58.20
5940;DHT22;2995;-31.998;115.906;2023-12-20T12:45:15;32.30;58.20
5940;DHT22;2995;-31.998;115.906;2023-12-20T12:47:48;32.40;58.30
5940;DHT22;2995;-31.998;115.906;2023-12-20T12:50:21;32.30;58.40
5940;DHT22;2995;-31.998;115.906;2023-12-20T12:52:52;32.20;58.40
5940;DHT22;2995;-31.998;115.906;2023-12-20T12:55:23;32.20;58.70
5940;DHT22;2995;-31.998;115.906;2023-12-20T12:57:55;32.20;58.40
5940;DHT22;2995;-31.998;115.906;2023-12-20T13:00:26;32.10;58.60
5940;DHT22;2995;-31.998;115.906;2023-12-20T13:02:59;32.00;58.60
5940;DHT22;2995;-31.998;115.906;2023-12-20T13:05:30;32.00;58.80
5940;DHT22;2995;-31.998;115.906;2023-12-20T13:08:02;32.00;58.40
5940;DHT22;2995;-31.998;115.906;2023-12-20T13:10:33;32.10;58.70
5940;DHT22;2995;-31.998;115.906;2023-12-20T13:13:04;32.00;58.60
5940;DHT22;2995;-31.998;115.906;2023-12-20T13:15:35;31.90;58.70
5940;DHT22;2995;-31.998;115.906;2023-12-20T13:18:09;31.80;58.70
5940;DHT22;2995;-31.998;115.906;2023-12-20T13:20:40;31.80;58.60
5940;DHT22;2995;-31.998;115.906;2023-12-20T13:23:11;31.80;58.70
5940;DHT22;2995;-31.998;115.906;2023-12-20T13:25:42;31.70;58.80
5940;DHT22;2995;-31.998;115.906;2023-12-20T13:28:14;31.50;58.70
5940;DHT22;2995;-31.998;115.906;2023-12-20T13:30:46;31.70;58.60
5940;DHT22;2995;-31.998;115.906;2023-12-20T13:33:19;31.60;58.40
5940;DHT22;2995;-31.998;115.906;2023-12-20T13:35:50;31.50;58.30
5940;DHT22;2995;-31.998;115.906;2023-12-20T13:38:22;31.50;58.30
5940;DHT22;2995;-31.998;115.906;2023-12-20T13:40:53;31.50;58.60
5940;DHT22;2995;-31.998;115.906;2023-12-20T13:43:26;31.50;58.30
5940;DHT22;2995;-31.998;115.906;2023-12-20T13:45:57;31.50;58.00
5940;DHT22;2995;-31.998;115.906;2023-12-20T13:48:30;31.40;57.80
5940;DHT22;2995;-31.998;115.906;2023-12-20T13:51:02;31.30;57.80
5940;DHT22;2995;-31.998;115.906;2023-12-20T13:53:33;31.30;57.80
5940;DHT22;2995;-31.998;115.906;2023-12-20T13:56:06;31.20;57.60
5940;DHT22;2995;-31.998;115.906;2023-12-20T13:58:38;31.30;57.10
5940;DHT22;2995;-31.998;115.906;2023-12-20T14:01:09;31.20;57.10
5940;DHT22;2995;-31.998;115.906;2023-12-20T14:03:43;31.10;57.20
5940;DHT22;2995;-31.998;115.906;2023-12-20T14:06:14;31.00;57.10
5940;DHT22;2995;-31.998;115.906;2023-12-20T14:08:45;31.00;57.20
5940;DHT22;2995;-31.998;115.906;2023-12-20T14:11:17;31.00;56.90
5940;DHT22;2995;-31.998;115.906;2023-12-20T14:13:48;31.00;57.00
5940;DHT22;2995;-31.998;115.906;2023-12-20T14:16:19;31.00;57.10
5940;DHT22;2995;-31.998;115.906;2023-12-20T14:18:53;31.00;57.20
5940;DHT22;2995;-31.998;115.906;2023-12-20T14:21:25;30.90;56.90
5940;DHT22;2995;-31.998;115.906;2023-12-20T14:23:57;30.90;57.00
5940;DHT22;2995;-31.998;115.906;2023-12-20T14:26:28;30.70;57.20
5940;DHT22;2995;-31.998;115.906;2023-12-20T14:28:59;30.60;57.40
5940;DHT22;2995;-31.998;115.906;2023-12-20T14:31:32;30.60;57.70
5940;DHT22;2995;-31.998;115.906;2023-12-20T14:34:05;30.60;57.90
5940;DHT22;2995;-31.998;115.906;2023-12-20T14:36:36;30.60;58.10
5940;DHT22;2995;-31.998;115.906;2023-12-20T14:39:08;30.50;58.60
5940;DHT22;2995;-31.998;115.906;2023-12-20T14:41:41;30.40;59.00
5940;DHT22;2995;-31.998;115.906;2023-12-20T14:44:13;30.30;59.30
5940;DHT22;2995;-31.998;115.906;2023-12-20T14:46:44;30.30;59.90
5940;DHT22;2995;-31.998;115.906;2023-12-20T14:49:18;30.30;61.00
5940;DHT22;2995;-31.998;115.906;2023-12-20T14:51:49;30.00;61.80
5940;DHT22;2995;-31.998;115.906;2023-12-20T14:54:20;30.00;62.10
5940;DHT22;2995;-31.998;115.906;2023-12-20T14:56:51;30.00;62.70
5940;DHT22;2995;-31.998;115.906;2023-12-20T14:59:22;29.90;63.40
5940;DHT22;2995;-31.998;115.906;2023-12-20T15:01:54;30.00;63.80
5940;DHT22;2995;-31.998;115.906;2023-12-20T15:04:28;29.80;64.90
5940;DHT22;2995;-31.998;115.906;2023-12-20T15:06:59;29.50;65.50
5940;DHT22;2995;-31.998;115.906;2023-12-20T15:09:32;29.40;65.80
5940;DHT22;2995;-31.998;115.906;2023-12-20T15:12:04;29.20;66.60
5940;DHT22;2995;-31.998;115.906;2023-12-20T15:14:35;29.20;66.80
5940;DHT22;2995;-31.998;115.906;2023-12-20T15:17:06;29.00;67.50
5940;DHT22;2995;-31.998;115.906;2023-12-20T15:19:40;29.00;68.00
5940;DHT22;2995;-31.998;115.906;2023-12-20T15:22:12;29.00;68.40
5940;DHT22;2995;-31.998;115.906;2023-12-20T15:24:43;28.70;68.20
5940;DHT22;2995;-31.998;115.906;2023-12-20T15:27:15;28.70;68.40
5940;DHT22;2995;-31.998;115.906;2023-12-20T15:29:46;28.80;68.40
5940;DHT22;2995;-31.998;115.906;2023-12-20T15:32:17;28.70;69.00
5940;DHT22;2995;-31.998;115.906;2023-12-20T15:34:51;28.70;69.20
5940;DHT22;2995;-31.998;115.906;2023-12-20T15:37:22;28.50;70.00
5940;DHT22;2995;-31.998;115.906;2023-12-20T15:39:54;28.40;70.00
5940;DHT22;2995;-31.998;115.906;2023-12-20T15:42:25;28.40;70.60
5940;DHT22;2995;-31.998;115.906;2023-12-20T15:44:58;28.10;70.80